Time;durP1;ratioP1;P1;durP2;ratioP2;P2;SDS_P1;SDS_P2;PMS_P1;PMS_P2;Temp;Humidity;BMP_temperature;BMP_pressure;BME280_temperature;BME280_humidity;BME280_pressure;Samples;Min_cycle;Max_cycle;Signal;HPM_P1;HPM_P2
2022/02/26 00:01:58;;;;;;;42.98;19.52;;;10.20;87.20;;;;;;1918460;75;21642;-54
2022/02/26 00:04:28;;;;;;;41.65;20.02;;;10.10;87.00;;;;;;1918606;75;21093;-52
2022/02/26 00:06:58;;;;;;;49.30;20.40;;;10.20;87.20;;;;;;1918521;75;21053;-54
2022/02/26 00:09:28;;;;;;;51.30;20.10;;;10.20;87.30;;;;;;1918523;75;21061;-52
2022/02/26 00:11:57;;;;;;;41.60;17.57;;;10.20;87.40;;;;;;1918490;74;21073;-54
2022/02/26 00:14:26;;;;;;;41.85;19.15;;;10.20;87.50;;;;;;1918477;75;21093;-54
2022/02/26 00:16:56;;;;;;;39.80;17.73;;;10.20;87.60;;;;;;1918463;75;21034;-53
2022/02/26 00:19:25;;;;;;;39.85;17.62;;;10.20;87.70;;;;;;1918649;75;21112;-53
2022/02/26 00:21:55;;;;;;;50.23;18.10;;;10.20;87.80;;;;;;1918615;75;21050;-54
2022/02/26 00:24:24;;;;;;;46.50;18.60;;;10.30;88.50;;;;;;1918554;74;21030;-54
2022/02/26 00:26:53;;;;;;;49.03;20.12;;;10.30;87.90;;;;;;1918613;75;21034;-53
2022/02/26 00:29:23;;;;;;;41.90;17.82;;;10.30;88.00;;;;;;1918573;74;21089;-52
2022/02/26 00:31:52;;;;;;;46.75;18.17;;;10.30;88.00;;;;;;1918600;75;21437;-53
2022/02/26 00:34:22;;;;;;;46.63;20.17;;;10.30;88.10;;;;;;1918544;75;21107;-52
2022/02/26 00:36:51;;;;;;;46.65;18.98;;;10.30;88.10;;;;;;1918510;75;21104;-53
2022/02/26 00:39:20;;;;;;;45.78;17.98;;;10.30;88.10;;;;;;1918561;74;21103;-53
2022/02/26 00:41:50;;;;;;;49.42;20.82;;;10.30;88.00;;;;;;1918416;75;21062;-52
2022/02/26 00:44:19;;;;;;;46.02;19.17;;;10.30;88.00;;;;;;1918640;74;21103;-54
2022/02/26 00:46:49;;;;;;;50.58;21.57;;;10.30;87.90;;;;;;1918551;75;21088;-53
2022/02/26 00:52:06;;;;;;;48.02;19.30;;;10.20;87.90;;;;;;1918498;75;21188;-53
2022/02/26 00:54:35;;;;;;;46.58;20.52;;;10.10;88.10;;;;;;1918544;75;21223;-54
2022/02/26 00:57:04;;;;;;;40.67;19.67;;;10.10;88.40;;;;;;1918489;75;21042;-53
2022/02/26 00:59:34;;;;;;;45.23;18.35;;;10.10;89.10;;;;;;1911662;74;21109;-54
2022/02/26 01:02:05;;;;;;;43.55;17.70;;;10.10;88.60;;;;;;1909331;75;21167;-52
2022/02/26 01:04:34;;;;;;;47.70;20.68;;;10.20;88.70;;;;;;1909307;75;21022;-53
2022/02/26 01:07:04;;;;;;;51.10;21.60;;;10.20;88.50;;;;;;1909244;74;21163;-54
2022/02/26 01:09:34;;;;;;;41.95;18.77;;;10.10;88.30;;;;;;1909298;75;21081;-54
2022/02/26 01:12:04;;;;;;;46.35;19.62;;;10.10;88.40;;;;;;1909264;75;21094;-54
2022/02/26 01:14:34;;;;;;;54.48;21.73;;;10.10;88.60;;;;;;1909377;75;21073;-52
2022/02/26 01:17:05;;;;;;;54.53;21.30;;;10.10;88.20;;;;;;1909268;75;21081;-52
2022/02/26 01:19:34;;;;;;;55.70;20.17;;;10.00;87.90;;;;;;1909243;75;21203;-54
2022/02/26 01:22:04;;;;;;;45.95;17.55;;;10.00;88.00;;;;;;1909243;74;21107;-53
2022/02/26 01:24:34;;;;;;;54.73;22.45;;;9.90;88.40;;;;;;1909277;75;21066;-53
2022/02/26 01:27:04;;;;;;;48.60;21.68;;;9.90;88.80;;;;;;1909260;75;21045;-53
2022/02/26 01:29:35;;;;;;;57.17;22.20;;;9.90;88.50;;;;;;1909282;75;21144;-54
2022/02/26 01:32:05;;;;;;;54.50;21.87;;;9.90;88.80;;;;;;1909412;75;21169;-54
2022/02/26 01:34:35;;;;;;;59.67;22.42;;;9.70;88.20;;;;;;1909222;75;21177;-55
2022/02/26 01:37:05;;;;;;;50.95;20.90;;;9.70;88.30;;;;;;1909244;75;21240;-53
2022/02/26 01:39:34;;;;;;;55.60;21.05;;;9.60;88.60;;;;;;1909271;75;21103;-52
2022/02/26 01:42:05;;;;;;;60.95;23.05;;;9.60;88.50;;;;;;1909205;75;21108;-52
2022/02/26 01:44:37;;;;;;;56.13;22.22;;;9.50;88.70;;;;;;1909258;75;21738;-53
2022/02/26 01:47:07;;;;;;;50.08;20.55;;;9.50;88.60;;;;;;1909379;75;21465;-53
2022/02/26 01:49:37;;;;;;;58.40;22.87;;;9.50;88.70;;;;;;1909542;74;21035;-53
2022/02/26 01:52:07;;;;;;;65.12;24.87;;;9.50;89.00;;;;;;1909328;75;21184;-53
2022/02/26 01:54:37;;;;;;;69.77;25.82;;;9.50;89.00;;;;;;1909380;75;21132;-52
2022/02/26 01:57:06;;;;;;;59.33;23.70;;;9.50;89.10;;;;;;1909377;75;21124;-52
2022/02/26 01:59:37;;;;;;;61.53;22.30;;;9.50;89.20;;;;;;1913923;75;21154;-53
2022/02/26 02:02:07;;;;;;;51.95;22.15;;;9.50;89.40;;;;;;1918537;74;21092;-53
2022/02/26 02:04:36;;;;;;;51.42;19.40;;;9.60;89.80;;;;;;1918671;75;21029;-53
2022/02/26 02:07:06;;;;;;;60.60;23.57;;;9.60;89.60;;;;;;1918516;75;21090;-53
2022/02/26 02:09:36;;;;;;;59.75;23.02;;;9.60;89.70;;;;;;1918766;75;21160;-52
2022/02/26 02:12:06;;;;;;;67.08;24.15;;;9.60;89.20;;;;;;1918668;74;21091;-53
2022/02/26 02:14:36;;;;;;;56.92;23.07;;;9.60;89.30;;;;;;1918813;74;21104;-54
2022/02/26 02:17:06;;;;;;;53.30;23.52;;;9.50;89.40;;;;;;1918781;75;21504;-53
2022/02/26 02:19:35;;;;;;;61.23;23.92;;;9.50;89.30;;;;;;1918761;74;21509;-53
2022/02/26 02:22:06;;;;;;;55.43;22.30;;;9.40;89.20;;;;;;1918612;74;21109;-54
2022/02/26 02:24:35;;;;;;;63.08;24.50;;;9.40;89.50;;;;;;1918722;74;21006;-54
2022/02/26 02:27:05;;;;;;;60.28;23.87;;;9.40;89.50;;;;;;1918793;75;21085;-54
2022/02/26 02:29:35;;;;;;;71.35;24.05;;;9.30;89.40;;;;;;1918695;75;21041;-53
2022/02/26 02:32:04;;;;;;;62.65;21.65;;;9.30;89.70;;;;;;1918710;75;21232;-52
2022/02/26 02:34:34;;;;;;;55.90;21.65;;;9.40;90.00;;;;;;1918784;75;21061;-53
2022/02/26 02:37:04;;;;;;;59.80;22.50;;;9.40;90.10;;;;;;1918677;75;21163;-54
2022/02/26 02:39:33;;;;;;;54.40;21.87;;;9.50;90.10;;;;;;1918772;75;21085;-53
2022/02/26 02:42:02;;;;;;;59.85;22.35;;;9.60;90.10;;;;;;1918691;75;21006;-53
2022/02/26 02:44:32;;;;;;;55.65;23.18;;;9.60;90.00;;;;;;1918798;74;21034;-53
2022/02/26 02:47:01;;;;;;;62.50;23.38;;;9.60;89.90;;;;;;1918734;75;21089;-53
2022/02/26 02:49:31;;;;;;;60.70;22.15;;;9.70;90.00;;;;;;1918784;74;21178;-53
2022/02/26 02:52:01;;;;;;;51.92;20.90;;;9.70;90.10;;;;;;1918754;75;21034;-53
2022/02/26 02:54:30;;;;;;;57.03;21.77;;;9.70;90.00;;;;;;1918619;75;21153;-53
2022/02/26 02:57:00;;;;;;;54.27;21.93;;;9.70;90.10;;;;;;1918644;75;21287;-53
2022/02/26 02:59:30;;;;;;;56.88;20.75;;;9.70;90.00;;;;;;1916938;75;21241;-52
2022/02/26 03:01:59;;;;;;;47.48;18.85;;;9.70;90.10;;;;;;1909413;75;21120;-53
2022/02/26 03:04:28;;;;;;;52.93;19.82;;;9.80;90.10;;;;;;1909357;75;21026;-53
2022/02/26 03:06:58;;;;;;;50.88;20.32;;;9.80;90.20;;;;;;1909320;74;21100;-53
2022/02/26 03:09:27;;;;;;;51.33;18.77;;;9.80;90.20;;;;;;1909352;75;21231;-53
2022/02/26 03:11:57;;;;;;;45.58;20.55;;;9.80;90.10;;;;;;1909381;75;21039;-53
2022/02/26 03:14:26;;;;;;;42.62;18.30;;;9.80;90.20;;;;;;1909308;75;21034;-53
2022/02/26 03:16:55;;;;;;;60.23;23.70;;;9.90;90.20;;;;;;1909439;75;21038;-53
2022/02/26 03:19:25;;;;;;;52.67;20.72;;;9.90;90.20;;;;;;1909361;75;21010;-52
2022/02/26 03:21:54;;;;;;;56.45;20.62;;;9.90;90.10;;;;;;1909316;75;21066;-52
2022/02/26 03:24:24;;;;;;;61.83;22.30;;;9.90;90.10;;;;;;1909321;75;21160;-53
2022/02/26 03:26:57;;;;;;;52.55;21.25;;;9.80;90.00;;;;;;1909355;74;21046;-51
2022/02/26 03:29:31;;;;;;;58.87;21.90;;;9.80;90.10;;;;;;1909522;75;21112;-52
2022/02/26 03:32:00;;;;;;;49.55;20.02;;;9.80;90.10;;;;;;1909330;75;21097;-53
2022/02/26 03:34:29;;;;;;;51.75;20.92;;;9.80;90.20;;;;;;1909369;75;21165;-52
2022/02/26 03:36:58;;;;;;;49.58;20.25;;;9.80;90.30;;;;;;1909297;74;21042;-53
2022/02/26 03:39:34;;;;;;;48.50;18.05;;;9.80;90.30;;;;;;1909320;75;21030;-54
2022/02/26 03:42:01;;;;;;;51.13;18.85;;;9.90;90.30;;;;;;1907217;75;21569;-52
2022/02/26 03:44:30;;;;;;;50.35;20.82;;;9.90;90.30;;;;;;1909383;75;21022;-53
2022/02/26 03:47:00;;;;;;;50.95;20.45;;;10.00;90.30;;;;;;1909404;75;21010;-54
2022/02/26 03:49:29;;;;;;;53.95;20.17;;;10.00;90.30;;;;;;1909331;75;21034;-54
2022/02/26 03:51:59;;;;;;;47.78;19.35;;;10.00;90.30;;;;;;1909408;75;21098;-53
2022/02/26 03:54:29;;;;;;;45.15;19.32;;;10.00;90.30;;;;;;1909377;75;21067;-53
2022/02/26 03:56:58;;;;;;;52.95;19.85;;;10.00;90.30;;;;;;1909294;75;21164;-54
2022/02/26 03:59:29;;;;;;;43.90;18.55;;;10.00;90.30;;;;;;1909336;75;21107;-52
2022/02/26 04:01:58;;;;;;;45.03;19.37;;;10.10;90.40;;;;;;1902295;75;21144;-52
2022/02/26 04:04:27;;;;;;;40.70;17.62;;;10.00;90.40;;;;;;1902088;75;21007;-53
2022/02/26 04:06:57;;;;;;;58.23;20.95;;;10.10;90.30;;;;;;1902118;75;21103;-53
2022/02/26 04:09:26;;;;;;;49.00;19.60;;;10.10;90.40;;;;;;1902225;75;21160;-52
2022/02/26 04:11:55;;;;;;;47.55;18.92;;;10.10;90.40;;;;;;1902237;75;21038;-53
2022/02/26 04:14:25;;;;;;;46.92;17.90;;;10.10;90.40;;;;;;1902197;75;21120;-54
2022/02/26 04:16:54;;;;;;;48.85;19.05;;;10.10;90.40;;;;;;1902340;75;21150;-54
2022/02/26 04:19:23;;;;;;;50.83;20.45;;;10.10;90.40;;;;;;1902338;75;21131;-54
2022/02/26 04:21:53;;;;;;;48.35;19.45;;;10.10;90.40;;;;;;1902188;75;21094;-53
2022/02/26 04:24:22;;;;;;;51.18;19.32;;;10.10;90.40;;;;;;1902374;75;21010;-53
2022/02/26 04:26:52;;;;;;;50.65;19.60;;;10.10;90.40;;;;;;1902228;75;21116;-53
2022/02/26 04:29:21;;;;;;;47.05;21.25;;;10.10;90.40;;;;;;1902258;75;21125;-54
2022/02/26 04:31:50;;;;;;;53.40;20.95;;;10.20;90.50;;;;;;1902253;75;21100;-51
2022/02/26 04:34:20;;;;;;;51.65;20.30;;;10.10;90.40;;;;;;1902222;75;21169;-53
2022/02/26 04:36:49;;;;;;;52.17;22.40;;;10.20;90.40;;;;;;1902304;75;21131;-54
2022/02/26 04:39:19;;;;;;;55.95;23.05;;;10.10;90.40;;;;;;1902325;75;21027;-52
2022/02/26 04:41:48;;;;;;;54.10;21.25;;;10.20;90.50;;;;;;1902246;75;21270;-51
2022/02/26 04:44:18;;;;;;;58.78;23.65;;;10.10;90.30;;;;;;1902381;75;21035;-53
2022/02/26 04:46:47;;;;;;;57.80;22.48;;;10.00;90.20;;;;;;1902268;75;21007;-53
2022/02/26 04:49:16;;;;;;;63.23;23.50;;;9.90;90.20;;;;;;1902356;75;21031;-53
2022/02/26 04:51:46;;;;;;;68.62;23.85;;;9.90;90.20;;;;;;1902227;75;21027;-53
2022/02/26 04:54:15;;;;;;;58.38;23.30;;;9.80;90.40;;;;;;1902223;75;21030;-53
2022/02/26 04:56:44;;;;;;;57.93;21.93;;;9.80;90.40;;;;;;1902232;75;21541;-52
2022/02/26 04:59:14;;;;;;;58.45;20.50;;;9.80;90.40;;;;;;1902399;75;21054;-53
2022/02/26 05:01:43;;;;;;;53.87;20.60;;;9.70;90.50;;;;;;1906748;75;21058;-54
2022/02/26 05:04:13;;;;;;;56.70;22.15;;;9.80;90.60;;;;;;1909400;75;21164;-53
2022/02/26 05:06:42;;;;;;;58.95;22.05;;;9.80;90.70;;;;;;1909523;75;21095;-54
2022/02/26 05:09:12;;;;;;;50.30;18.55;;;9.80;90.70;;;;;;1909578;75;21168;-53
2022/02/26 05:11:41;;;;;;;50.30;18.85;;;9.90;90.70;;;;;;1909479;74;21054;-53
2022/02/26 05:14:12;;;;;;;51.25;18.05;;;9.90;90.70;;;;;;1909447;75;21083;-54
2022/02/26 05:16:43;;;;;;;48.98;18.73;;;10.00;90.70;;;;;;1909571;75;21556;-51
2022/02/26 05:19:12;;;;;;;48.17;19.60;;;10.00;90.70;;;;;;1909653;75;21120;-53
2022/02/26 05:21:42;;;;;;;52.40;19.80;;;10.10;90.70;;;;;;1909351;75;21143;-55
2022/02/26 05:24:11;;;;;;;50.08;19.60;;;10.10;90.70;;;;;;1909583;75;21090;-54
2022/02/26 05:26:41;;;;;;;50.80;21.23;;;10.20;90.70;;;;;;1909593;75;21007;-53
2022/02/26 05:29:10;;;;;;;59.70;22.93;;;10.10;90.50;;;;;;1909604;75;21163;-53
2022/02/26 05:31:40;;;;;;;58.25;21.20;;;10.10;90.40;;;;;;1909610;75;21122;-53
2022/02/26 05:34:09;;;;;;;60.95;23.27;;;10.10;90.40;;;;;;1909419;75;21116;-54
2022/02/26 05:36:39;;;;;;;53.73;22.07;;;10.00;90.40;;;;;;1909409;75;21104;-53
2022/02/26 05:39:09;;;;;;;60.83;23.95;;;10.00;90.40;;;;;;1909534;74;21083;-53
2022/02/26 05:41:38;;;;;;;56.75;22.05;;;9.90;90.40;;;;;;1909580;75;21007;-53
2022/02/26 05:44:08;;;;;;;61.05;23.50;;;9.80;90.30;;;;;;1909389;74;21166;-53
2022/02/26 05:46:37;;;;;;;64.05;24.00;;;9.80;90.30;;;;;;1909475;75;21067;-53
2022/02/26 05:49:07;;;;;;;61.50;23.42;;;9.70;90.30;;;;;;1909435;75;21116;-53
2022/02/26 05:51:36;;;;;;;57.08;22.95;;;9.70;90.40;;;;;;1909416;75;21046;-54
2022/02/26 05:54:06;;;;;;;60.85;24.82;;;9.60;90.20;;;;;;1909461;75;21130;-54
2022/02/26 05:56:35;;;;;;;60.78;23.25;;;9.60;90.30;;;;;;1909485;75;21106;-53
2022/02/26 05:59:04;;;;;;;58.68;23.65;;;9.50;90.30;;;;;;1909518;75;21067;-53
2022/02/26 06:01:34;;;;;;;61.90;23.47;;;9.40;90.30;;;;;;1912040;75;21157;-53
2022/02/26 06:04:04;;;;;;;64.07;23.92;;;9.40;90.30;;;;;;1918697;75;21034;-51
2022/02/26 06:06:33;;;;;;;55.12;22.80;;;9.30;90.40;;;;;;1918827;75;21030;-52
2022/02/26 06:09:03;;;;;;;58.98;22.95;;;9.30;90.30;;;;;;1918766;74;21029;-53
2022/02/26 06:11:32;;;;;;;56.50;24.27;;;9.20;90.40;;;;;;1918786;75;21007;-55
2022/02/26 06:14:01;;;;;;;50.67;22.45;;;9.20;90.50;;;;;;1918706;75;21453;-54
2022/02/26 06:16:31;;;;;;;50.30;22.40;;;9.20;90.30;;;;;;1918637;75;21027;-53
2022/02/26 06:19:00;;;;;;;51.63;24.27;;;9.10;90.40;;;;;;1918748;75;21038;-54
2022/02/26 06:21:30;;;;;;;55.43;23.65;;;9.10;90.40;;;;;;1918604;74;21094;-53
2022/02/26 06:23:59;;;;;;;50.43;22.98;;;9.10;90.50;;;;;;1918658;75;21050;-53
2022/02/26 06:26:28;;;;;;;52.53;23.70;;;9.10;90.50;;;;;;1918714;74;21034;-54
2022/02/26 06:28:58;;;;;;;56.18;22.52;;;9.10;90.70;;;;;;1918748;75;21029;-51
2022/02/26 06:31:27;;;;;;;48.50;23.27;;;9.10;90.50;;;;;;1918604;75;21155;-53
2022/02/26 06:33:56;;;;;;;47.90;23.87;;;9.10;90.60;;;;;;1918553;75;21038;-53
2022/02/26 06:36:25;;;;;;;51.33;22.02;;;9.10;90.40;;;;;;1918608;74;21022;-54
2022/02/26 06:38:55;;;;;;;46.95;21.35;;;9.10;90.40;;;;;;1918701;75;21315;-52
2022/02/26 06:41:24;;;;;;;44.53;21.05;;;9.10;90.40;;;;;;1918690;75;21182;-54
2022/02/26 06:43:54;;;;;;;46.88;21.95;;;9.10;90.50;;;;;;1918621;75;21030;-53
2022/02/26 06:46:23;;;;;;;42.15;19.50;;;9.10;90.40;;;;;;1918657;74;21026;-53
2022/02/26 06:48:53;;;;;;;44.67;19.75;;;9.10;90.50;;;;;;1918750;75;21488;-54
2022/02/26 06:51:22;;;;;;;48.02;20.25;;;9.10;90.60;;;;;;1918644;74;21108;-53
2022/02/26 06:53:52;;;;;;;51.80;23.27;;;9.10;90.60;;;;;;1918640;74;21034;-54
2022/02/26 06:56:21;;;;;;;50.10;22.37;;;9.10;90.50;;;;;;1918638;75;21163;-54
2022/02/26 06:58:51;;;;;;;48.00;22.93;;;9.10;90.40;;;;;;1918645;75;21501;-53
2022/02/26 07:01:21;;;;;;;53.40;23.47;;;9.10;90.50;;;;;;1918640;75;21034;-54
2022/02/26 07:03:50;;;;;;;49.70;23.95;;;9.10;90.60;;;;;;1902810;75;21062;-52
2022/02/26 07:06:21;;;;;;;58.42;23.22;;;9.10;90.50;;;;;;1902256;75;21149;-54
2022/02/26 07:08:50;;;;;;;53.38;21.45;;;9.10;90.60;;;;;;1902274;75;21169;-54
2022/02/26 07:11:19;;;;;;;45.30;23.02;;;9.10;90.50;;;;;;1902297;75;21027;-53
2022/02/26 07:13:49;;;;;;;49.50;21.90;;;9.10;90.70;;;;;;1902137;75;21047;-53
2022/02/26 07:16:18;;;;;;;50.08;23.85;;;9.10;90.70;;;;;;1902200;75;21151;-53
2022/02/26 07:18:48;;;;;;;49.08;23.62;;;9.20;90.80;;;;;;1902192;75;21151;-53
2022/02/26 07:21:17;;;;;;;50.88;22.30;;;9.20;90.60;;;;;;1902258;75;21123;-53
2022/02/26 07:23:47;;;;;;;51.48;23.27;;;9.30;90.90;;;;;;1902399;75;21054;-54
2022/02/26 07:26:16;;;;;;;52.88;23.30;;;9.40;90.80;;;;;;1902131;75;21086;-53
2022/02/26 07:28:46;;;;;;;52.67;23.45;;;9.40;90.70;;;;;;1902198;75;21046;-52
2022/02/26 07:31:15;;;;;;;41.95;21.27;;;9.40;90.70;;;;;;1902159;75;21031;-53
2022/02/26 07:33:45;;;;;;;41.18;22.60;;;9.50;90.60;;;;;;1902120;75;21058;-55
2022/02/26 07:36:15;;;;;;;48.45;22.02;;;9.50;90.70;;;;;;1902190;75;21011;-54
2022/02/26 07:38:45;;;;;;;51.18;23.38;;;9.50;90.80;;;;;;1902097;75;21034;-53
2022/02/26 07:41:14;;;;;;;50.83;23.35;;;9.50;90.50;;;;;;1902061;75;21039;-53
2022/02/26 07:43:43;;;;;;;51.13;21.55;;;9.60;90.60;;;;;;1902121;75;21112;-53
2022/02/26 07:46:12;;;;;;;57.35;24.55;;;9.60;90.50;;;;;;1901997;75;21011;-53
2022/02/26 07:48:42;;;;;;;47.17;21.60;;;9.60;90.40;;;;;;1902198;75;21108;-53
2022/02/26 07:51:11;;;;;;;55.30;24.63;;;9.60;90.40;;;;;;1902115;75;21112;-53
2022/02/26 07:53:40;;;;;;;51.73;23.18;;;9.60;90.50;;;;;;1902044;75;21156;-53
2022/02/26 07:56:10;;;;;;;53.90;23.20;;;9.70;90.40;;;;;;1902136;75;21070;-54
2022/02/26 07:58:39;;;;;;;50.15;23.92;;;9.70;90.30;;;;;;1902087;75;21026;-53
2022/02/26 08:01:09;;;;;;;47.05;23.25;;;9.70;90.30;;;;;;1902222;75;21128;-53
2022/02/26 08:03:38;;;;;;;47.40;22.62;;;9.60;90.20;;;;;;1912403;75;21062;-54
2022/02/26 08:06:08;;;;;;;51.70;22.87;;;9.60;90.20;;;;;;1918511;75;21022;-52
2022/02/26 08:08:37;;;;;;;51.98;23.70;;;9.60;90.20;;;;;;1918507;75;21093;-54
2022/02/26 08:11:06;;;;;;;54.08;23.83;;;9.60;90.30;;;;;;1918577;75;21151;-52
2022/02/26 08:13:36;;;;;;;55.88;22.55;;;9.60;90.40;;;;;;1918566;75;21167;-54
2022/02/26 08:16:08;;;;;;;51.77;23.47;;;9.60;90.30;;;;;;1918578;75;21323;-53
2022/02/26 08:18:36;;;;;;;58.55;23.98;;;9.60;90.40;;;;;;1918817;75;21077;-54
2022/02/26 08:21:06;;;;;;;54.33;24.60;;;9.60;90.40;;;;;;1918614;74;21147;-54
2022/02/26 08:23:35;;;;;;;55.23;25.50;;;9.60;90.40;;;;;;1918645;75;21100;-53
2022/02/26 08:26:05;;;;;;;53.08;24.75;;;9.60;90.40;;;;;;1918594;75;21120;-54
2022/02/26 08:28:34;;;;;;;51.10;22.60;;;9.60;90.40;;;;;;1918482;74;21107;-54
2022/02/26 08:31:04;;;;;;;52.45;24.55;;;9.60;90.40;;;;;;1918452;75;21006;-54
2022/02/26 08:33:33;;;;;;;48.05;22.60;;;9.60;90.50;;;;;;1918460;75;21026;-54
2022/02/26 08:36:03;;;;;;;50.17;22.50;;;9.60;90.50;;;;;;1918610;75;21003;-53
2022/02/26 08:38:32;;;;;;;50.95;22.60;;;9.60;90.50;;;;;;1918559;75;21038;-53
2022/02/26 08:41:02;;;;;;;50.52;22.48;;;9.60;90.50;;;;;;1918421;75;21006;-53
2022/02/26 08:43:31;;;;;;;53.63;24.37;;;9.60;90.50;;;;;;1918472;75;21175;-51
2022/02/26 08:46:00;;;;;;;52.50;23.98;;;9.70;90.60;;;;;;1918556;75;21116;-54
2022/02/26 08:48:30;;;;;;;47.70;23.75;;;9.70;90.50;;;;;;1918513;75;21108;-52
2022/02/26 08:50:59;;;;;;;42.95;19.30;;;9.80;90.50;;;;;;1918477;75;21111;-53
2022/02/26 08:53:29;;;;;;;52.98;24.35;;;9.80;90.20;;;;;;1918417;75;21100;-54
2022/02/26 08:55:58;;;;;;;48.45;21.82;;;9.80;90.20;;;;;;1918530;75;21117;-54
2022/02/26 08:58:27;;;;;;;46.85;22.27;;;9.80;90.30;;;;;;1918563;75;21058;-55
2022/02/26 09:00:57;;;;;;;53.10;24.98;;;9.70;90.30;;;;;;1918451;74;21086;-53
2022/02/26 09:03:26;;;;;;;53.02;23.25;;;9.70;90.30;;;;;;1914034;75;21067;-54
2022/02/26 09:05:56;;;;;;;46.80;21.65;;;9.80;90.30;;;;;;1902046;75;21070;-54
2022/02/26 09:08:25;;;;;;;46.15;21.10;;;9.70;90.30;;;;;;1902172;75;21098;-53
2022/02/26 09:10:54;;;;;;;53.33;24.18;;;9.70;90.10;;;;;;1902101;75;21034;-53
2022/02/26 09:13:24;;;;;;;40.90;20.97;;;9.70;90.10;;;;;;1902047;75;21051;-53
2022/02/26 09:15:54;;;;;;;39.60;19.77;;;9.70;90.30;;;;;;1902189;75;21034;-54
2022/02/26 09:18:23;;;;;;;44.80;20.12;;;9.60;90.10;;;;;;1901959;75;21046;-54
2022/02/26 09:20:52;;;;;;;40.25;20.30;;;9.70;90.10;;;;;;1901923;75;21113;-53
2022/02/26 09:23:21;;;;;;;42.53;21.02;;;9.70;90.10;;;;;;1901996;75;21433;-52
2022/02/26 09:25:50;;;;;;;34.88;19.00;;;9.70;90.10;;;;;;1901953;75;21133;-53
2022/02/26 09:28:20;;;;;;;40.67;20.88;;;9.60;88.80;;;;;;1901917;75;21054;-54
2022/02/26 09:30:49;;;;;;;28.40;16.02;;;9.70;88.90;;;;;;1901930;75;21051;-54
2022/02/26 09:33:19;;;;;;;32.08;17.27;;;9.70;88.80;;;;;;1901896;75;21104;-54
2022/02/26 09:35:48;;;;;;;33.80;19.12;;;9.60;88.70;;;;;;1901865;75;21108;-52
2022/02/26 09:38:18;;;;;;;46.75;19.27;;;9.60;88.50;;;;;;1902025;75;21011;-53
2022/02/26 09:40:48;;;;;;;30.97;17.70;;;9.60;88.60;;;;;;1902003;75;21104;-54
2022/02/26 09:43:17;;;;;;;31.97;16.67;;;9.60;89.00;;;;;;1901936;75;21007;-52
2022/02/26 09:45:46;;;;;;;29.48;16.20;;;9.60;88.60;;;;;;1901998;75;21074;-53
2022/02/26 09:48:16;;;;;;;32.20;16.35;;;9.60;88.90;;;;;;1901983;75;21074;-53
2022/02/26 09:50:45;;;;;;;30.45;15.98;;;9.60;88.90;;;;;;1902082;75;21035;-54
2022/02/26 09:53:15;;;;;;;55.25;26.30;;;9.60;88.30;;;;;;1901919;75;21110;-53
2022/02/26 09:55:45;;;;;;;29.92;17.30;;;9.60;88.30;;;;;;1902056;75;21015;-54
2022/02/26 09:58:15;;;;;;;31.73;15.98;;;9.60;88.40;;;;;;1901951;75;21027;-54
2022/02/26 10:00:45;;;;;;;26.82;14.43;;;9.50;88.10;;;;;;1902050;75;21031;-54
2022/02/26 10:03:32;;;;;;;26.25;14.85;;;9.50;87.90;;;;;;1901975;75;21059;-54
2022/02/26 10:06:06;;;;;;;29.67;14.53;;;9.50;87.90;;;;;;1902044;75;21073;-53
2022/02/26 10:08:50;;;;;;;21.67;14.50;;;9.50;87.60;;;;;;1902147;75;21035;-54
2022/02/26 10:11:28;;;;;;;28.80;14.20;;;9.50;87.50;;;;;;1902289;75;21108;-55
2022/02/26 10:14:03;;;;;;;24.95;14.65;;;9.50;87.90;;;;;;1902048;75;21023;-53
2022/02/26 10:16:56;;;;;;;31.55;14.75;;;9.50;87.90;;;;;;1902226;75;21031;-54
2022/02/26 10:19:27;;;;;;;25.55;15.40;;;9.50;87.70;;;;;;1900475;75;21054;-53
2022/02/26 10:21:58;;;;;;;25.52;14.00;;;9.50;87.80;;;;;;1902461;75;21773;-53
2022/02/26 10:24:28;;;;;;;30.82;12.98;;;9.50;87.80;;;;;;1902147;75;21493;-53
2022/02/26 10:27:00;;;;;;;34.27;15.55;;;9.50;88.00;;;;;;1902260;75;21007;-52
2022/02/26 10:29:30;;;;;;;28.00;14.83;;;9.50;88.00;;;;;;1902196;75;21019;-53
2022/02/26 10:32:00;;;;;;;27.62;15.03;;;9.50;88.00;;;;;;1902144;75;21112;-54
2022/02/26 10:34:41;;;;;;;32.13;14.98;;;9.40;87.80;;;;;;1902132;75;21493;-53
2022/02/26 10:37:15;;;;;;;34.40;17.05;;;9.50;87.90;;;;;;1902192;75;21026;-53
2022/02/26 10:39:45;;;;;;;;;;;9.40;88.10;;;;;;1904942;75;21061;-54
2022/02/26 10:42:33;;;;;;;35.75;17.05;;;9.50;88.20;;;;;;1902124;75;20104;-53
2022/02/26 10:45:13;;;;;;;29.67;16.65;;;9.40;88.30;;;;;;1902066;75;21002;-53
2022/02/26 10:47:46;;;;;;;33.75;17.05;;;9.50;88.70;;;;;;1902038;75;21023;-53
2022/02/26 10:50:25;;;;;;;29.90;17.45;;;9.50;88.70;;;;;;1902133;75;21026;-51
2022/02/26 10:53:00;;;;;;;30.37;15.78;;;9.50;88.80;;;;;;1902232;75;21047;-52
2022/02/26 10:55:51;;;;;;;31.70;16.40;;;9.40;88.60;;;;;;1902203;75;21118;-52
2022/02/26 10:58:23;;;;;;;29.20;14.70;;;9.40;89.40;;;;;;1902028;75;21125;-52
2022/02/26 11:00:54;;;;;;;32.58;15.35;;;9.40;88.70;;;;;;1901993;75;21035;-52
2022/02/26 11:03:23;;;;;;;27.67;14.98;;;9.40;88.90;;;;;;1901396;75;21481;-52
2022/02/26 11:05:54;;;;;;;27.25;14.63;;;9.40;88.80;;;;;;1902025;75;21054;-52
2022/02/26 11:08:24;;;;;;;27.67;14.40;;;9.40;89.20;;;;;;1902125;75;21100;-52
2022/02/26 11:10:54;;;;;;;31.68;16.00;;;9.40;89.30;;;;;;1902189;75;21035;-53
2022/02/26 11:13:24;;;;;;;27.30;14.55;;;9.30;89.40;;;;;;1902076;75;21153;-51
2022/02/26 11:15:58;;;;;;;32.25;17.32;;;9.30;89.60;;;;;;1902133;75;21043;-49
2022/02/26 11:18:30;;;;;;;32.60;15.68;;;9.30;89.40;;;;;;1902241;75;21074;-53
2022/02/26 11:21:00;;;;;;;28.75;15.63;;;9.30;89.40;;;;;;1899710;75;21023;-52
2022/02/26 11:23:30;;;;;;;35.23;17.75;;;9.30;89.40;;;;;;1902011;75;21078;-52
2022/02/26 11:26:00;;;;;;;29.15;16.50;;;9.30;89.50;;;;;;1902064;75;21074;-52
2022/02/26 11:28:29;;;;;;;24.50;13.48;;;9.30;89.30;;;;;;1902060;75;21070;-51
2022/02/26 11:31:04;;;;;;;20.85;11.73;;;9.30;89.10;;;;;;1902017;75;21039;-51
2022/02/26 11:33:33;;;;;;;22.20;10.95;;;9.30;88.80;;;;;;1901995;75;21078;-53
2022/02/26 11:36:03;;;;;;;34.18;16.15;;;9.20;88.90;;;;;;1902007;75;21108;-52
2022/02/26 11:38:37;;;;;;;26.55;14.40;;;9.20;89.10;;;;;;1902066;75;21122;-51
2022/02/26 11:41:26;;;;;;;33.38;17.15;;;9.10;89.30;;;;;;1902336;75;21035;-50
2022/02/26 11:43:58;;;;;;;24.27;12.90;;;9.10;89.40;;;;;;1902195;75;21109;-53
2022/02/26 11:46:39;;;;;;;28.65;13.93;;;9.10;89.50;;;;;;1902007;75;21098;-52
2022/02/26 11:49:19;;;;;;;26.33;15.60;;;9.10;89.40;;;;;;1902046;75;21586;-52
2022/02/26 11:51:49;;;;;;;42.20;16.80;;;9.10;89.80;;;;;;1895724;75;21039;-52
2022/02/26 11:54:21;;;;;;;30.05;16.23;;;9.10;89.70;;;;;;1902093;75;21007;-53
2022/02/26 11:56:57;;;;;;;28.10;14.93;;;9.10;89.70;;;;;;1902236;75;21031;-50
2022/02/26 11:59:42;;;;;;;38.15;18.85;;;9.10;89.60;;;;;;1902267;75;21312;-53
2022/02/26 12:02:13;;;;;;;27.82;15.18;;;9.10;89.20;;;;;;1902098;75;21101;-54
2022/02/26 12:04:59;;;;;;;26.17;14.13;;;9.10;88.50;;;;;;1901861;75;21034;-52
2022/02/26 12:07:31;;;;;;;26.27;15.35;;;9.10;88.50;;;;;;1902193;75;20995;-52
2022/02/26 12:10:06;;;;;;;30.27;17.15;;;9.10;88.30;;;;;;1902125;75;21066;-54
2022/02/26 12:12:39;;;;;;;;;;;9.10;87.80;;;;;;1904735;75;21059;-53
2022/02/26 12:15:20;;;;;;;24.65;14.05;;;9.10;87.60;;;;;;1902053;75;20100;-54
2022/02/26 12:18:12;;;;;;;32.25;17.37;;;9.10;87.70;;;;;;1902054;75;21026;-54
2022/02/26 12:20:38;;;;;;;43.35;19.35;;;9.00;86.80;;;;;;1900994;75;21066;-50
2022/02/26 12:23:13;;;;;;;51.53;22.77;;;9.00;87.20;;;;;;1902137;75;21042;-50
2022/02/26 12:25:42;;;;;;;;;;;9.00;87.40;;;;;;1903638;75;21505;-53
2022/02/26 12:28:14;;;;;;;54.80;22.45;;;8.90;86.00;;;;;;1902114;75;20136;-52
2022/02/26 12:31:07;;;;;;;50.95;23.30;;;8.90;86.70;;;;;;1902104;75;21469;-52
2022/02/26 12:33:48;;;;;;;48.48;22.17;;;8.90;86.90;;;;;;1902094;75;20995;-54
2022/02/26 12:36:19;;;;;;;51.35;27.48;;;8.80;87.00;;;;;;1902069;75;21089;-52
2022/02/26 12:38:54;;;;;;;52.73;26.27;;;8.80;87.30;;;;;;1902079;75;21113;-52
2022/02/26 12:41:31;;;;;;;56.28;26.45;;;8.80;87.50;;;;;;1902293;75;21513;-53
2022/02/26 12:44:01;;;;;;;36.15;19.92;;;8.80;88.50;;;;;;1902040;75;21003;-53
2022/02/26 12:46:31;;;;;;;34.50;17.92;;;8.70;88.00;;;;;;1902062;75;21113;-51
2022/02/26 12:49:04;;;;;;;29.48;15.25;;;8.70;88.10;;;;;;1902084;75;21055;-53
2022/02/26 12:51:34;;;;;;;33.58;16.52;;;8.70;88.20;;;;;;1902085;75;21023;-52
2022/02/26 12:54:03;;;;;;;33.35;18.05;;;8.60;88.30;;;;;;1902072;75;21035;-51
2022/02/26 12:56:37;;;;;;;32.35;17.77;;;8.50;88.80;;;;;;1902157;75;21031;-53